Time;durP1;ratioP1;P1;durP2;ratioP2;P2;SDS_P1;SDS_P2;PMS_P1;PMS_P2;Temp;Humidity;BMP_temperature;BMP_pressure;BME280_temperature;BME280_humidity;BME280_pressure;Samples;Min_cycle;Max_cycle;Signal;HPM_P1;HPM_P2
2023/01/30 00:01:56;;;;;;;74.40;43.72;;;;;;;14.08;79.44;99073.50;5032993;28;20072;-64
2023/01/30 00:04:39;;;;;;;76.00;45.40;;;;;;;14.14;79.14;99069.22;5033703;28;20468;-65
2023/01/30 00:07:28;;;;;;;76.78;45.83;;;;;;;14.04;79.40;99058.97;5023299;28;20045;-65
2023/01/30 00:10:10;;;;;;;73.90;43.47;;;;;;;14.07;79.30;99065.75;5017701;28;20115;-64
2023/01/30 00:13:06;;;;;;;74.90;45.20;;;;;;;13.98;79.67;99067.81;5024068;28;20045;-64
2023/01/30 00:15:42;;;;;;;73.03;43.85;;;;;;;14.01;79.75;99066.56;5031505;28;20053;-64
2023/01/30 00:18:31;;;;;;;78.95;44.80;;;;;;;13.84;79.63;99069.63;5023087;28;20602;-63
2023/01/30 00:21:16;;;;;;;71.10;44.42;;;;;;;13.91;80.16;99074.94;5019594;28;20104;-64
2023/01/30 00:24:05;;;;;;;74.97;42.55;;;;;;;14.04;79.39;99074.94;5021831;28;20049;-63
2023/01/30 00:26:54;;;;;;;72.68;41.47;;;;;;;14.01;79.90;99077.22;5019058;28;20569;-64
2023/01/30 00:29:42;;;;;;;77.45;43.25;;;;;;;13.90;79.98;99086.63;5004666;28;20142;-64
2023/01/30 00:32:43;;;;;;;75.28;42.45;;;;;;;14.05;80.04;99087.25;5021214;28;20049;-64
2023/01/30 00:35:27;;;;;;;70.00;43.35;;;;;;;13.95;79.75;99092.16;5016086;28;20045;-64
2023/01/30 00:38:16;;;;;;;74.05;44.47;;;;;;;13.96;79.72;99099.13;4997991;28;20054;-64
2023/01/30 00:40:57;;;;;;;74.32;42.45;;;;;;;13.90;80.28;99105.25;5016185;28;20135;-64
2023/01/30 00:47:04;;;;;;;74.82;43.67;;;;;;;13.84;80.30;99108.75;4985337;28;20054;-64
2023/01/30 00:49:53;;;;;;;73.03;42.45;;;;;;;13.95;80.06;99110.78;4987921;28;20089;-64
2023/01/30 00:52:34;;;;;;;72.60;43.70;;;;;;;14.11;80.05;99105.09;5003568;28;20056;-63
2023/01/30 00:55:24;;;;;;;65.85;40.45;;;;;;;14.17;79.51;99122.06;5020212;28;20153;-64
2023/01/30 00:58:07;;;;;;;71.35;43.65;;;;;;;14.16;79.33;99123.13;5013391;28;20042;-64
2023/01/30 01:00:57;;;;;;;72.50;42.75;;;;;;;14.03;79.50;99123.91;5018163;28;20813;-64
2023/01/30 01:03:48;;;;;;;70.13;42.65;;;;;;;14.13;79.76;99127.00;5008694;28;20060;-64
2023/01/30 01:06:32;;;;;;;72.82;41.90;;;;;;;14.01;79.61;99131.28;4975383;28;20064;-64
2023/01/30 01:09:27;;;;;;;65.75;40.13;;;;;;;14.00;79.91;99137.63;5013092;28;20692;-64
2023/01/30 01:12:02;;;;;;;69.10;40.53;;;;;;;14.01;80.21;99135.78;5010251;28;20058;-65
2023/01/30 01:14:51;;;;;;;74.50;41.88;;;;;;;14.00;79.68;99142.97;5023694;28;20056;-65
2023/01/30 01:17:34;;;;;;;72.00;43.78;;;;;;;13.94;79.92;99152.56;5006609;28;20052;-64
2023/01/30 01:20:30;;;;;;;71.22;41.70;;;;;;;13.87;80.22;99134.97;5004666;28;20161;-65
2023/01/30 01:23:05;;;;;;;76.22;43.88;;;;;;;13.94;80.44;99149.91;5004425;28;20805;-64
2023/01/30 01:25:55;;;;;;;81.70;45.22;;;;;;;13.99;79.95;99153.81;4983913;28;20046;-65
2023/01/30 01:28:47;;;;;;;86.25;50.88;;;;;;;13.95;79.80;99164.06;5009102;28;20456;-65
2023/01/30 01:31:28;;;;;;;84.70;49.55;;;;;;;13.98;79.92;99168.16;5022029;28;20049;-64
2023/01/30 01:34:18;;;;;;;89.57;51.45;;;;;;;13.87;80.17;99161.59;5019476;28;20045;-65
2023/01/30 01:37:07;;;;;;;91.45;53.60;;;;;;;13.92;79.81;99165.28;5013474;28;20046;-64
2023/01/30 01:43:18;;;;;;;92.78;53.67;;;;;;;13.76;80.34;99183.50;4997062;28;20742;-64
2023/01/30 01:46:28;;;;;;;88.30;52.20;;;;;;;13.83;79.97;99186.97;5027985;28;20061;-66
2023/01/30 01:49:29;;;;;;;92.20;53.20;;;;;;;13.81;80.31;99183.69;5010136;28;20046;-64
2023/01/30 01:52:23;;;;;;;90.00;54.28;;;;;;;13.79;80.40;99199.06;5027557;28;20147;-64
2023/01/30 01:55:13;;;;;;;88.43;49.53;;;;;;;13.72;80.86;99214.19;5027589;28;20045;-64
2023/01/30 01:58:31;;;;;;;95.70;52.20;;;;;;;13.80;80.77;99211.34;5026982;28;20475;-64
2023/01/30 02:01:13;;;;;;;88.85;50.05;;;;;;;13.92;80.79;99215.88;5005281;28;20050;-64
2023/01/30 02:04:08;;;;;;;83.97;49.92;;;;;;;13.93;80.06;99214.88;5026710;28;20050;-61
2023/01/30 02:07:04;;;;;;;83.13;47.72;;;;;;;14.00;79.99;99224.69;5025928;28;20053;-65
2023/01/30 02:09:39;;;;;;;80.97;45.50;;;;;;;13.85;80.77;99230.22;5026475;28;20045;-64
2023/01/30 02:12:36;;;;;;;77.18;44.45;;;;;;;13.81;80.87;99236.94;5027218;28;20053;-64
2023/01/30 02:15:11;;;;;;;76.82;44.35;;;;;;;13.79;80.65;99238.97;5024093;28;20053;-65
2023/01/30 02:18:01;;;;;;;75.43;45.35;;;;;;;13.79;81.06;99242.47;5018845;28;20083;-64
2023/01/30 02:21:03;;;;;;;69.18;43.28;;;;;;;13.84;80.72;99242.69;5027280;28;20044;-63
2023/01/30 02:24:03;;;;;;;69.68;42.42;;;;;;;13.80;81.02;99249.44;5003017;28;20077;-64
2023/01/30 02:27:12;;;;;;;74.20;40.40;;;;;;;13.84;81.35;99252.53;4996521;28;20049;-63
2023/01/30 02:30:08;;;;;;;64.93;38.13;;;;;;;13.77;81.44;99257.81;5009252;28;20136;-63
2023/01/30 02:33:23;;;;;;;66.45;37.67;;;;;;;13.88;81.63;99261.75;5027248;28;20048;-63
2023/01/30 02:36:30;;;;;;;60.88;35.88;;;;;;;13.85;81.55;99256.84;5006331;28;20062;-63
2023/01/30 02:39:49;;;;;;;57.17;34.15;;;;;;;13.94;81.48;99268.91;4989050;28;20057;-63
2023/01/30 02:42:40;;;;;;;59.55;33.97;;;;;;;13.79;81.65;99265.59;4989618;28;20044;-62
2023/01/30 02:45:40;;;;;;;56.35;32.42;;;;;;;13.78;82.16;99274.59;5032969;28;20049;-62
2023/01/30 02:48:46;;;;;;;58.45;33.25;;;;;;;13.83;81.99;99282.81;4986510;28;20048;-62
2023/01/30 02:51:25;;;;;;;58.65;34.38;;;;;;;13.86;81.79;99280.56;5025635;28;20042;-63
2023/01/30 02:54:23;;;;;;;51.63;33.53;;;;;;;13.83;81.94;99283.66;5025270;28;20626;-63
2023/01/30 02:56:59;;;;;;;53.70;32.40;;;;;;;13.89;82.18;99290.03;5026982;28;20057;-63
2023/01/30 02:59:58;;;;;;;53.80;32.30;;;;;;;13.90;82.29;99297.78;5009004;28;20076;-63
2023/01/30 03:03:08;;;;;;;53.40;32.60;;;;;;;14.00;82.22;99300.09;5025522;28;20049;-62
2023/01/30 03:06:22;;;;;;;51.55;31.70;;;;;;;14.00;81.96;99313.41;5015564;28;20068;-63
2023/01/30 03:09:21;;;;;;;57.03;31.55;;;;;;;14.07;81.95;99319.59;4997245;28;20053;-63
2023/01/30 03:12:29;;;;;;;50.03;30.27;;;;;;;14.10;81.81;99329.84;5032511;28;20075;-63
2023/01/30 03:15:30;;;;;;;50.58;29.58;;;;;;;14.03;81.83;99325.53;5015757;28;20049;-63
2023/01/30 03:18:11;;;;;;;52.60;31.63;;;;;;;14.11;82.02;99330.66;5001984;28;20169;-62
2023/01/30 03:21:01;;;;;;;50.40;28.92;;;;;;;14.09;81.82;99338.03;5022405;28;20126;-63
2023/01/30 03:23:47;;;;;;;46.67;29.23;;;;;;;14.18;81.63;99344.81;5031021;28;20053;-63
2023/01/30 03:26:41;;;;;;;48.40;28.85;;;;;;;14.19;81.66;99362.44;5013085;28;20049;-63
2023/01/30 03:29:29;;;;;;;55.55;30.77;;;;;;;14.15;81.77;99362.03;5009187;28;20045;-63
2023/01/30 03:32:18;;;;;;;50.47;30.13;;;;;;;14.21;81.81;99365.72;5027725;28;20484;-64
2023/01/30 03:35:00;;;;;;;51.67;28.85;;;;;;;14.10;82.10;99382.28;5029062;28;20586;-63
2023/01/30 03:37:51;;;;;;;49.00;28.83;;;;;;;14.11;81.89;99395.41;5029755;28;20041;-63
2023/01/30 03:40:35;;;;;;;46.50;28.92;;;;;;;14.12;82.29;99383.72;5007764;28;20136;-64
2023/01/30 03:43:24;;;;;;;54.90;29.15;;;;;;;14.17;81.89;99399.94;5018348;28;20046;-63
2023/01/30 03:46:08;;;;;;;54.83;30.33;;;;;;;14.14;82.06;99402.19;5041236;28;20132;-64
2023/01/30 03:48:58;;;;;;;57.35;29.58;;;;;;;14.15;82.18;99407.31;5008485;28;20045;-65
2023/01/30 03:51:40;;;;;;;57.33;29.80;;;;;;;14.16;82.48;99419.59;5033999;28;20042;-65
2023/01/30 03:54:30;;;;;;;52.50;28.83;;;;;;;14.16;82.36;99424.13;5007583;28;20041;-64
2023/01/30 03:57:25;;;;;;;56.53;30.08;;;;;;;14.25;81.89;99429.06;5024562;28;20061;-63
2023/01/30 04:00:01;;;;;;;51.30;27.05;;;;;;;14.16;81.98;99427.59;5026452;28;20567;-64
2023/01/30 04:02:57;;;;;;;49.53;26.42;;;;;;;14.20;82.37;99438.69;4990947;28;20415;-64
2023/01/30 04:05:33;;;;;;;49.72;26.85;;;;;;;14.24;81.80;99440.78;4988138;28;20058;-63
2023/01/30 04:08:29;;;;;;;48.92;26.65;;;;;;;14.24;82.03;99450.59;5007499;28;20056;-62
2023/01/30 04:11:06;;;;;;;51.28;27.70;;;;;;;14.20;82.37;99450.19;5006070;28;20626;-63
2023/01/30 04:13:55;;;;;;;42.73;26.60;;;;;;;14.24;82.35;99462.09;5022200;28;20361;-63
2023/01/30 04:16:58;;;;;;;50.63;26.55;;;;;;;14.29;82.42;99464.16;5007091;28;20279;-63
2023/01/30 04:19:52;;;;;;;47.10;25.95;;;;;;;14.27;82.04;99464.34;5024753;28;20049;-63
2023/01/30 04:22:44;;;;;;;44.92;25.55;;;;;;;14.38;82.00;99468.34;5019275;28;20108;-64
2023/01/30 04:25:26;;;;;;;45.42;24.55;;;;;;;14.37;82.51;99472.84;5020306;28;20786;-63
2023/01/30 04:28:16;;;;;;;46.95;26.08;;;;;;;14.31;82.50;99484.25;4998555;28;20469;-64
2023/01/30 04:31:12;;;;;;;44.45;24.40;;;;;;;14.35;82.71;99488.19;5031264;28;20057;-63
2023/01/30 04:34:04;;;;;;;43.35;24.50;;;;;;;14.35;82.87;99487.31;5025126;28;20088;-64
2023/01/30 04:36:52;;;;;;;41.67;24.55;;;;;;;14.47;83.00;99487.66;5007097;28;20041;-64
2023/01/30 04:39:35;;;;;;;44.17;25.07;;;;;;;14.52;82.20;99490.50;5007275;28;20139;-63
2023/01/30 04:42:24;;;;;;;42.83;23.63;;;;;;;14.67;81.84;99499.19;5003950;28;20284;-65
2023/01/30 04:45:29;;;;;;;39.22;21.67;;;;;;;14.79;81.44;99500.25;4991004;28;20123;-66
2023/01/30 04:48:20;;;;;;;40.35;22.30;;;;;;;14.97;81.24;99499.69;5024194;28;20137;-64
2023/01/30 04:51:04;;;;;;;37.33;20.17;;;;;;;14.86;80.09;99505.63;5023114;28;20707;-64
2023/01/30 04:53:54;;;;;;;36.70;21.30;;;;;;;14.96;80.48;99498.88;5004490;28;20049;-64
2023/01/30 04:56:48;;;;;;;30.00;18.52;;;;;;;15.01;79.93;99507.09;5005663;28;20107;-64
2023/01/30 04:59:24;;;;;;;30.23;18.60;;;;;;;15.09;79.44;99508.78;4987002;28;20120;-62
2023/01/30 05:02:16;;;;;;;31.05;18.70;;;;;;;15.15;79.37;99514.13;5010399;28;20049;-62
2023/01/30 05:04:59;;;;;;;27.00;18.45;;;;;;;15.14;79.28;99516.97;5015324;28;20124;-62
2023/01/30 05:07:48;;;;;;;28.35;18.35;;;;;;;15.26;79.61;99524.22;5029845;28;20045;-62
2023/01/30 05:10:37;;;;;;;29.98;17.90;;;;;;;15.31;79.63;99526.28;5024667;28;20054;-62
2023/01/30 05:13:20;;;;;;;28.35;18.48;;;;;;;15.20;79.16;99527.69;5024731;28;20069;-62
2023/01/30 05:16:11;;;;;;;26.27;17.48;;;;;;;15.14;79.67;99525.81;5029345;28;20057;-61
2023/01/30 05:18:54;;;;;;;27.83;17.75;;;;;;;15.12;79.31;99529.72;5029259;28;20033;-62
2023/01/30 05:21:43;;;;;;;26.77;16.63;;;;;;;15.04;79.63;99525.41;5027065;28;20053;-59
2023/01/30 05:24:24;;;;;;;28.50;17.38;;;;;;;15.09;79.56;99524.78;5028726;28;20061;-59
2023/01/30 05:27:13;;;;;;;26.77;17.40;;;;;;;15.11;79.99;99525.41;5034662;28;20111;-60
2023/01/30 05:30:03;;;;;;;24.08;16.23;;;;;;;15.08;79.63;99521.31;5035875;28;20631;-61
2023/01/30 05:32:45;;;;;;;25.05;16.75;;;;;;;15.13;79.71;99528.72;5033816;28;20060;-61
2023/01/30 05:35:40;;;;;;;25.70;14.52;;;;;;;15.14;79.40;99530.31;5016812;28;20046;-60
2023/01/30 05:38:16;;;;;;;24.00;13.50;;;;;;;15.10;79.34;99526.41;5009592;28;20373;-60
2023/01/30 05:41:14;;;;;;;28.97;14.33;;;;;;;15.12;79.36;99517.19;5019727;28;20045;-60
2023/01/30 05:43:50;;;;;;;19.08;11.95;;;;;;;15.01;79.02;99523.09;5015781;28;20073;-60
2023/01/30 05:46:38;;;;;;;20.23;12.18;;;;;;;15.08;79.14;99528.47;4993929;28;20049;-61
2023/01/30 05:49:20;;;;;;;18.35;11.73;;;;;;;15.02;79.23;99514.09;5017902;28;20050;-60
2023/01/30 05:52:09;;;;;;;18.30;11.60;;;;;;;15.02;79.52;99522.09;5010315;28;20437;-61
2023/01/30 05:54:51;;;;;;;20.70;11.93;;;;;;;14.94;79.84;99524.13;5008006;28;20050;-61
2023/01/30 05:57:46;;;;;;;16.92;10.85;;;;;;;14.94;79.97;99518.78;5010484;28;20054;-61
2023/01/30 06:00:22;;;;;;;16.65;10.27;;;;;;;14.99;80.23;99522.50;5016537;28;20045;-62
2023/01/30 06:03:17;;;;;;;16.55;11.77;;;;;;;14.92;80.58;99526.97;4987662;28;20402;-61
2023/01/30 06:05:53;;;;;;;24.90;13.40;;;;;;;14.84;80.33;99517.31;5017989;28;20055;-66
2023/01/30 06:08:48;;;;;;;24.42;17.30;;;;;;;14.84;80.48;99516.50;5013814;28;20061;-63
2023/01/30 06:11:25;;;;;;;25.15;16.67;;;;;;;14.85;81.31;99512.81;5014161;28;20052;-64
2023/01/30 06:14:20;;;;;;;24.52;17.33;;;;;;;14.84;81.40;99524.50;5008042;28;20045;-61
2023/01/30 06:16:55;;;;;;;24.20;16.65;;;;;;;14.80;81.53;99513.41;5007445;28;20378;-61
2023/01/30 06:19:51;;;;;;;20.90;14.63;;;;;;;14.78;82.19;99511.97;5003591;28;20119;-60
2023/01/30 06:22:26;;;;;;;21.77;14.27;;;;;;;14.76;81.86;99514.00;5002092;28;20517;-62
2023/01/30 06:25:22;;;;;;;19.67;13.47;;;;;;;14.78;82.44;99514.66;4992995;28;20065;-61
2023/01/30 06:27:57;;;;;;;18.65;11.95;;;;;;;14.69;83.07;99511.28;5015492;28;20314;-62
2023/01/30 06:30:47;;;;;;;18.15;12.45;;;;;;;14.74;82.59;99505.38;5025573;28;20052;-62
2023/01/30 06:33:30;;;;;;;18.88;12.60;;;;;;;14.76;83.35;99498.00;5006574;28;20045;-67
2023/01/30 06:36:24;;;;;;;19.00;11.45;;;;;;;14.61;83.53;99502.66;5045534;28;20804;-63
2023/01/30 06:39:00;;;;;;;15.13;11.27;;;;;;;14.55;83.98;99498.13;5046909;28;20057;-64
2023/01/30 06:41:55;;;;;;;17.77;11.93;;;;;;;14.61;84.50;99498.16;5044811;28;20122;-62
2023/01/30 06:44:30;;;;;;;17.33;12.20;;;;;;;14.54;84.84;99496.47;5046483;28;20128;-62
2023/01/30 06:47:26;;;;;;;17.42;12.45;;;;;;;14.59;84.73;99497.53;5044163;28;20044;-62
2023/01/30 06:50:01;;;;;;;20.27;13.65;;;;;;;14.70;84.94;99493.47;5047140;28;20056;-64
2023/01/30 06:52:51;;;;;;;19.52;14.13;;;;;;;14.65;84.89;99501.22;5046020;28;20053;-62
2023/01/30 06:55:41;;;;;;;23.05;14.55;;;;;;;14.56;85.54;99497.91;5044341;28;20627;-62
2023/01/30 06:58:23;;;;;;;25.75;17.45;;;;;;;14.62;85.52;99485.63;5045822;28;20049;-60
2023/01/30 07:01:13;;;;;;;27.23;17.67;;;;;;;14.73;85.74;99496.56;5042720;28;20911;-62
2023/01/30 07:03:55;;;;;;;26.25;18.42;;;;;;;14.76;85.41;99492.66;5045057;28;20130;-64
2023/01/30 07:06:45;;;;;;;26.08;18.98;;;;;;;14.77;85.76;99484.47;5044164;28;20080;-64
2023/01/30 07:09:28;;;;;;;25.05;18.30;;;;;;;14.87;85.58;99477.94;5046160;28;20049;-62
2023/01/30 07:12:17;;;;;;;27.45;18.35;;;;;;;14.81;85.77;99490.22;5045202;28;20722;-66
2023/01/30 07:14:59;;;;;;;27.70;19.20;;;;;;;14.81;84.99;99479.56;5046226;28;20056;-62
2023/01/30 07:17:48;;;;;;;27.42;19.92;;;;;;;14.92;85.35;99480.81;5043885;28;20341;-63
2023/01/30 07:20:31;;;;;;;27.98;19.42;;;;;;;14.91;85.01;99469.34;5019843;28;20647;-63
2023/01/30 07:23:19;;;;;;;29.75;19.90;;;;;;;15.00;85.36;99460.09;5043976;28;20067;-63
2023/01/30 07:26:05;;;;;;;33.10;21.75;;;;;;;15.09;84.36;99464.22;5027049;28;20048;-65
2023/01/30 07:28:53;;;;;;;28.55;21.92;;;;;;;15.16;84.18;99469.59;5044247;28;20056;-63
2023/01/30 07:31:35;;;;;;;31.83;22.52;;;;;;;15.31;84.72;99459.56;5042527;28;20060;-63
2023/01/30 07:34:30;;;;;;;31.15;21.75;;;;;;;15.42;84.53;99456.25;5039697;28;20056;-64
2023/01/30 07:37:19;;;;;;;29.95;21.48;;;;;;;15.47;84.47;99444.97;5040383;28;20059;-63
2023/01/30 07:40:09;;;;;;;29.45;22.65;;;;;;;15.42;84.16;99450.09;5042718;28;20080;-64
2023/01/30 07:43:02;;;;;;;32.10;23.63;;;;;;;15.46;83.27;99441.47;5043495;28;20049;-65
2023/01/30 07:45:54;;;;;;;33.67;23.80;;;;;;;15.48;82.67;99433.28;5043078;28;20053;-64
2023/01/30 07:48:36;;;;;;;35.03;23.80;;;;;;;15.38;83.13;99439.03;5039549;28;20045;-63
2023/01/30 07:51:26;;;;;;;33.95;23.67;;;;;;;15.51;83.42;99430.22;5041472;28;20737;-65
2023/01/30 07:54:07;;;;;;;33.15;24.85;;;;;;;15.57;82.51;99422.22;5042286;28;20056;-64
2023/01/30 07:56:56;;;;;;;35.30;25.02;;;;;;;15.61;82.70;99419.94;5043129;28;20149;-64
2023/01/30 07:59:38;;;;;;;34.40;24.65;;;;;;;15.78;82.18;99413.13;5040600;28;20049;-62
2023/01/30 08:02:27;;;;;;;34.42;25.80;;;;;;;16.05;81.68;99403.22;5042224;28;20125;-62
2023/01/30 08:05:09;;;;;;;38.42;26.88;;;;;;;16.52;81.63;99404.66;5029826;28;20556;-64
2023/01/30 08:08:01;;;;;;;36.25;27.05;;;;;;;16.90;80.67;99402.84;5044753;28;20146;-63
2023/01/30 08:10:44;;;;;;;34.95;26.20;;;;;;;17.03;79.42;99402.75;5042086;28;20214;-63
2023/01/30 08:13:32;;;;;;;35.00;26.17;;;;;;;16.90;78.32;99402.84;5026204;28;20065;-63
2023/01/30 08:16:14;;;;;;;33.65;24.85;;;;;;;16.84;78.64;99411.72;5042591;28;20195;-61
2023/01/30 08:19:03;;;;;;;31.30;23.85;;;;;;;16.88;77.83;99401.41;5037179;28;20111;-63
2023/01/30 08:21:45;;;;;;;36.05;25.40;;;;;;;17.09;78.31;99406.38;5039356;28;20083;-65
2023/01/30 08:24:34;;;;;;;31.08;25.10;;;;;;;17.08;77.62;99395.91;5043196;28;20077;-63
2023/01/30 08:27:38;;;;;;;33.17;24.70;;;;;;;17.34;77.63;99395.72;5039444;28;20773;-65
2023/01/30 08:30:29;;;;;;;33.75;25.58;;;;;;;17.43;76.26;99386.38;5045003;28;20041;-64
2023/01/30 08:33:17;;;;;;;33.95;25.65;;;;;;;17.43;75.31;99387.19;5043749;28;20136;-64
2023/01/30 08:35:59;;;;;;;30.60;24.35;;;;;;;17.49;76.31;99382.78;5042675;28;20170;-65
2023/01/30 08:38:49;;;;;;;33.50;24.02;;;;;;;17.59;75.81;99380.47;5035947;28;20345;-64
2023/01/30 08:41:30;;;;;;;32.30;24.60;;;;;;;17.69;74.96;99377.28;5044228;28;20044;-65
2023/01/30 08:44:19;;;;;;;33.38;25.15;;;;;;;17.74;74.35;99377.44;5044379;28;20088;-63
2023/01/30 08:47:01;;;;;;;32.17;25.27;;;;;;;17.92;74.54;99364.06;5036721;28;20052;-64
2023/01/30 08:49:51;;;;;;;34.20;26.25;;;;;;;17.83;73.21;99374.25;5044425;28;20048;-63
2023/01/30 08:52:46;;;;;;;32.83;25.27;;;;;;;17.49;73.85;99374.75;5044412;28;20061;-63
2023/01/30 08:55:22;;;;;;;37.10;27.13;;;;;;;17.70;73.92;99358.28;5029794;28;20057;-63
2023/01/30 08:58:11;;;;;;;37.90;28.50;;;;;;;17.67;73.55;99358.75;5038622;28;20850;-63
2023/01/30 09:00:54;;;;;;;37.17;28.65;;;;;;;17.79;73.79;99353.47;5041143;28;20140;-63
2023/01/30 09:03:43;;;;;;;40.65;30.05;;;;;;;17.79;73.22;99346.25;5044663;28;20347;-63
2023/01/30 09:06:25;;;;;;;35.42;27.30;;;;;;;17.93;72.39;99350.41;5041259;28;20048;-61
2023/01/30 09:09:14;;;;;;;37.70;28.92;;;;;;;18.08;72.42;99347.34;5038471;28;20056;-63
2023/01/30 09:11:56;;;;;;;38.08;27.60;;;;;;;18.27;72.22;99343.63;5044001;28;20048;-63
2023/01/30 09:14:54;;;;;;;36.10;27.95;;;;;;;18.00;71.32;99342.31;5044192;28;20540;-66
2023/01/30 09:17:30;;;;;;;35.10;27.83;;;;;;;18.26;71.85;99338.47;5031278;28;20051;-60
2023/01/30 09:20:19;;;;;;;38.97;28.42;;;;;;;18.11;70.87;99340.72;5044401;28;20488;-63
2023/01/30 09:23:08;;;;;;;35.03;27.88;;;;;;;18.11;70.68;99343.41;5045213;28;20732;-65
2023/01/30 09:25:50;;;;;;;38.10;27.30;;;;;;;18.08;71.37;99350.03;5064969;28;20080;-62
2023/01/30 09:28:41;;;;;;;36.33;27.85;;;;;;;18.06;71.11;99356.66;5032239;28;20056;-61
2023/01/30 09:31:23;;;;;;;37.70;27.40;;;;;;;18.19;70.87;99346.59;5025563;28;20048;-61
2023/01/30 09:34:13;;;;;;;33.53;26.85;;;;;;;17.90;71.83;99348.19;5042654;28;20076;-60
2023/01/30 09:37:07;;;;;;;35.08;27.42;;;;;;;18.03;71.80;99347.22;5038074;28;20546;-61
2023/01/30 09:39:44;;;;;;;33.75;25.90;;;;;;;17.74;72.02;99343.44;5043584;28;20045;-62
2023/01/30 09:42:51;;;;;;;27.73;22.58;;;;;;;17.87;71.98;99350.50;5042294;28;20052;-64
2023/01/30 09:45:34;;;;;;;28.58;23.55;;;;;;;18.17;72.19;99339.81;5023053;28;20057;-65
2023/01/30 09:48:34;;;;;;;33.00;23.73;;;;;;;18.19;71.86;99343.13;5036452;28;20654;-65
2023/01/30 09:51:24;;;;;;;30.35;24.00;;;;;;;18.32;70.79;99343.72;5042445;28;20114;-64
2023/01/30 09:54:31;;;;;;;33.15;24.30;;;;;;;18.28;71.00;99339.03;5044715;28;20052;-64
2023/01/30 09:57:07;;;;;;;34.88;25.92;;;;;;;18.47;70.86;99347.88;5046343;28;20053;-64
2023/01/30 10:00:17;;;;;;;35.80;25.35;;;;;;;18.45;71.19;99340.06;5028508;28;20469;-64
2023/01/30 10:03:20;;;;;;;33.80;26.27;;;;;;;18.45;71.16;99353.50;5045771;28;20099;-65
2023/01/30 10:06:21;;;;;;;38.30;26.85;;;;;;;18.36;70.07;99346.81;5028726;28;20429;-65
2023/01/30 10:09:27;;;;;;;34.83;26.40;;;;;;;18.26;70.29;99344.66;5030800;28;20151;-67
2023/01/30 10:12:47;;;;;;;35.53;26.52;;;;;;;18.20;70.05;99356.28;5044279;28;20151;-72
2023/01/30 10:16:02;;;;;;;36.08;27.00;;;;;;;18.27;70.88;99353.53;5030570;28;20372;-66
2023/01/30 10:19:06;;;;;;;37.25;26.67;;;;;;;18.45;70.02;99355.34;5045254;28;20052;-65
2023/01/30 10:21:48;;;;;;;38.50;26.52;;;;;;;18.55;69.33;99351.09;4769478;28;10001015;-63
2023/01/30 10:25:14;;;;;;;35.97;26.77;;;;;;;18.35;68.67;99347.84;5039879;28;20259;-65
2023/01/30 10:28:16;;;;;;;38.90;27.02;;;;;;;18.53;68.99;99350.50;5032783;28;20045;-64
2023/01/30 10:31:21;;;;;;;36.03;26.65;;;;;;;18.37;67.99;99353.78;5026825;28;20136;-64
2023/01/30 10:34:02;;;;;;;42.03;27.65;;;;;;;18.40;68.13;99358.72;5046245;28;20068;-66
2023/01/30 10:37:19;;;;;;;39.22;26.33;;;;;;;18.26;68.03;99344.66;5046893;28;20037;-66
2023/01/30 10:40:41;;;;;;;35.47;25.38;;;;;;;18.17;68.26;99361.28;5026859;28;20088;-65
2023/01/30 10:43:37;;;;;;;37.25;26.58;;;;;;;18.03;69.06;99362.47;5026778;28;20872;-65
2023/01/30 10:46:36;;;;;;;39.30;26.73;;;;;;;17.90;68.70;99358.09;5036457;28;20516;-63
2023/01/30 10:49:44;;;;;;;37.17;25.88;;;;;;;17.98;68.28;99356.97;5031985;28;20064;-63
2023/01/30 10:52:44;;;;;;;34.15;25.58;;;;;;;17.90;67.92;99358.91;5026627;28;20533;-64
2023/01/30 10:55:40;;;;;;;36.80;25.60;;;;;;;18.03;67.54;99365.16;5029725;28;20481;-65
2023/01/30 10:58:41;;;;;;;37.72;26.95;;;;;;;18.00;67.91;99365.59;5042489;28;20057;-62
2023/01/30 11:01:43;;;;;;;41.22;26.30;;;;;;;17.99;68.09;99366.66;5033122;28;20040;-66
2023/01/30 11:04:33;;;;;;;40.95;25.83;;;;;;;17.82;69.24;99369.94;5033143;28;20046;-63
2023/01/30 11:07:22;;;;;;;38.42;26.48;;;;;;;17.70;69.31;99362.84;5032749;28;20087;-63
2023/01/30 11:10:18;;;;;;;39.90;28.65;;;;;;;17.72;70.11;99358.06;5051811;28;20055;-66
2023/01/30 11:13:24;;;;;;;35.72;27.38;;;;;;;17.71;70.40;99365.28;5044525;28;20048;-66
2023/01/30 11:16:08;;;;;;;38.00;27.85;;;;;;;17.63;70.35;99367.44;5047005;28;20079;-69
2023/01/30 11:19:00;;;;;;;39.38;28.20;;;;;;;17.51;69.74;99370.84;5046834;28;20561;-70
2023/01/30 11:22:04;;;;;;;38.38;27.88;;;;;;;17.48;70.35;99376.59;5039763;28;20499;-67
2023/01/30 11:24:52;;;;;;;42.75;28.42;;;;;;;17.40;70.88;99374.22;5026244;28;20152;-68
2023/01/30 11:27:49;;;;;;;45.15;28.48;;;;;;;17.43;71.38;99384.50;5039741;28;20416;-68
2023/01/30 11:30:33;;;;;;;39.47;27.98;;;;;;;17.33;71.44;99386.03;5045377;28;20391;-66
2023/01/30 11:33:39;;;;;;;40.10;28.75;;;;;;;17.43;71.34;99389.03;5024994;28;20053;-68
2023/01/30 11:36:36;;;;;;;36.97;27.05;;;;;;;17.49;70.86;99383.59;5047850;28;20369;-68
2023/01/30 11:39:34;;;;;;;39.00;26.52;;;;;;;17.34;70.95;99390.34;5026287;28;20563;-70
2023/01/30 11:42:10;;;;;;;37.28;27.88;;;;;;;17.26;71.40;99390.63;5045032;28;20144;-66
2023/01/30 11:45:01;;;;;;;42.17;27.77;;;;;;;17.24;71.30;99398.06;5045154;28;20107;-64
2023/01/30 11:48:04;;;;;;;40.10;27.90;;;;;;;17.16;71.52;99396.47;5041182;28;20065;-67
2023/01/30 11:51:13;;;;;;;36.53;25.85;;;;;;;17.20;71.76;99402.19;5043964;28;20044;-64
2023/01/30 11:54:00;;;;;;;38.78;27.02;;;;;;;17.27;71.34;99413.66;5041806;28;20642;-65
2023/01/30 11:56:56;;;;;;;39.75;28.55;;;;;;;17.26;71.86;99412.84;5041168;28;20106;-63
2023/01/30 11:59:47;;;;;;;39.97;27.38;;;;;;;17.16;71.91;99411.72;5036711;28;20045;-62
2023/01/30 12:02:46;;;;;;;42.20;27.48;;;;;;;17.16;72.64;99409.84;5042604;28;20041;-62
2023/01/30 12:05:42;;;;;;;46.58;27.80;;;;;;;16.98;72.45;99418.63;5045307;28;20049;-64
2023/01/30 12:08:36;;;;;;;39.63;27.60;;;;;;;16.98;72.24;99420.47;5045404;28;20114;-63
2023/01/30 12:11:31;;;;;;;43.42;28.15;;;;;;;17.03;72.63;99418.81;5044019;28;20647;-63
2023/01/30 12:14:47;;;;;;;38.63;27.23;;;;;;;16.92;73.35;99422.16;5040894;28;20049;-64
2023/01/30 12:18:21;;;;;;;39.85;27.33;;;;;;;16.83;73.18;99426.13;5043654;28;20506;-62
2023/01/30 12:21:03;;;;;;;43.60;27.80;;;;;;;16.83;72.84;99428.78;5044060;28;20060;-61
2023/01/30 12:24:00;;;;;;;38.65;27.23;;;;;;;16.81;73.41;99425.53;5044199;28;20049;-62
2023/01/30 12:26:56;;;;;;;41.58;27.80;;;;;;;16.78;72.98;99439.31;5038690;28;20631;-67
2023/01/30 12:30:24;;;;;;;43.17;26.92;;;;;;;16.78;73.50;99436.63;5024755;28;20065;-63
2023/01/30 12:33:04;;;;;;;38.25;26.38;;;;;;;16.80;73.74;99437.25;5024078;28;20056;-61
2023/01/30 12:36:40;;;;;;;38.03;26.88;;;;;;;16.79;73.56;99438.28;5017359;28;20054;-62
2023/01/30 12:39:41;;;;;;;42.65;27.58;;;;;;;16.78;73.79;99436.63;4989245;28;20474;-63
2023/01/30 12:42:35;;;;;;;45.28;28.92;;;;;;;16.87;73.41;99440.72;5004973;28;20073;-63
2023/01/30 12:45:22;;;;;;;48.42;28.73;;;;;;;16.68;73.25;99436.31;5016328;28;20145;-62
2023/01/30 12:48:44;;;;;;;;;;;;;;;16.64;73.85;99435.06;5004169;28;20100;-63
2023/01/30 12:51:59;;;;;;;43.80;28.25;;;;;;;16.57;73.87;99450.31;4974847;28;19921;-65
2023/01/30 12:55:30;;;;;;;43.20;28.63;;;;;;;16.56;74.10;99441.44;4954631;28;20556;-65
2023/01/30 12:58:35;;;;;;;44.83;28.57;;;;;;;16.52;74.68;99442.09;4995588;28;20140;-66
2023/01/30 13:01:53;;;;;;;48.45;27.55;;;;;;;16.64;74.58;99450.31;5008949;28;20132;-67
2023/01/30 13:04:48;;;;;;;45.75;29.55;;;;;;;16.59;74.57;99456.31;5008758;28;20057;-70
2023/01/30 13:08:05;;;;;;;44.92;29.98;;;;;;;16.60;75.14;99455.25;5003156;28;20305;-66
2023/01/30 13:11:11;;;;;;;46.72;28.40;;;;;;;16.57;74.85;99455.66;5006237;28;20620;-66
2023/01/30 13:14:19;;;;;;;49.47;30.83;;;;;;;16.58;74.82;99462.69;5010137;28;20042;-69
2023/01/30 13:17:21;;;;;;;46.67;28.60;;;;;;;16.48;75.13;99456.91;5003059;28;20050;-67